createdAt,value
2019-05-02T00:01:30.235Z,57.40
2019-05-02T00:03:04.550Z,57.70
2019-05-02T00:04:36.321Z,57.90
2019-05-02T00:06:09.328Z,58.00
2019-05-02T00:07:42.240Z,57.90
2019-05-02T00:09:14.964Z,58.30
2019-05-02T00:10:47.678Z,58.20
2019-05-02T00:12:19.891Z,58.20
2019-05-02T00:13:52.605Z,58.30
2019-05-02T00:15:25.137Z,58.40
2019-05-02T00:16:57.484Z,58.50
2019-05-02T00:18:31.970Z,59.40
2019-05-02T00:20:06.832Z,58.70
2019-05-02T00:21:42.716Z,58.50
2019-05-02T00:23:13.307Z,59.00
2019-05-02T00:24:46.422Z,59.20
2019-05-02T00:26:18.516Z,59.20
2019-05-02T00:27:50.744Z,59.40
2019-05-02T00:29:23.742Z,59.40
2019-05-02T00:30:57.106Z,59.20
2019-05-02T00:32:29.204Z,59.30
2019-05-02T00:34:01.347Z,59.20
2019-05-02T00:35:33.560Z,59.30
2019-05-02T00:37:05.756Z,59.40
2019-05-02T00:38:39.751Z,59.70
2019-05-02T00:40:12.593Z,59.50
2019-05-02T00:41:44.694Z,59.20
2019-05-02T00:43:16.934Z,59.20
2019-05-02T00:44:49.192Z,59.30
2019-05-02T00:46:21.576Z,59.60
2019-05-02T00:48:00.561Z,59.60
2019-05-02T00:49:35.538Z,59.20
2019-05-02T00:51:06.818Z,59.30
2019-05-02T00:52:38.968Z,59.40
2019-05-02T00:54:11.100Z,59.70
2019-05-02T00:55:43.329Z,59.60
2019-05-02T00:57:19.937Z,59.90
2019-05-02T00:58:49.454Z,60.00
2019-05-02T01:00:22.006Z,60.00
2019-05-02T01:02:29.000Z,60.30
2019-05-02T01:04:06.295Z,60.30
2019-05-02T01:05:40.267Z,60.60
2019-05-02T01:07:12.905Z,60.30
2019-05-02T01:08:45.030Z,60.80
2019-05-02T01:10:21.189Z,60.70
2019-05-02T01:11:51.566Z,61.00
2019-05-02T01:13:23.796Z,61.10
2019-05-02T01:14:55.893Z,61.10
2019-05-02T01:16:28.091Z,61.40
2019-05-02T01:18:01.030Z,62.40
2019-05-02T01:19:34.288Z,62.10
2019-05-02T01:21:06.527Z,62.00
2019-05-02T01:22:38.679Z,62.00
2019-05-02T01:24:10.751Z,62.10
2019-05-02T01:25:47.236Z,61.80
2019-05-02T01:27:41.272Z,61.70
2019-05-02T01:29:19.466Z,61.50
2019-05-02T01:31:13.286Z,61.50
2019-05-02T01:33:01.312Z,62.10
2019-05-02T01:34:40.284Z,62.20
2019-05-02T01:36:32.080Z,62.40
2019-05-02T01:38:21.569Z,62.40
2019-05-02T01:39:53.757Z,62.90
2019-05-02T01:41:29.204Z,62.40
2019-05-02T01:43:19.802Z,63.10
2019-05-02T01:44:52.249Z,63.20
2019-05-02T01:46:24.485Z,63.10
2019-05-02T01:47:56.736Z,63.00
2019-05-02T01:49:28.974Z,62.70
2019-05-02T01:51:04.560Z,62.40
2019-05-02T01:52:35.074Z,63.00
2019-05-02T01:54:10.184Z,62.80
2019-05-02T01:55:41.257Z,63.00
2019-05-02T01:57:13.367Z,62.90
2019-05-02T01:58:45.631Z,63.20
2019-05-02T02:00:17.992Z,63.70
2019-05-02T02:01:53.269Z,63.70
2019-05-02T02:03:24.220Z,64.20
2019-05-02T02:04:56.908Z,64.20
2019-05-02T02:06:30.216Z,64.30
2019-05-02T02:08:02.360Z,64.40
2019-05-02T02:09:34.608Z,64.90
2019-05-02T02:11:08.664Z,65.10
2019-05-02T02:12:41.211Z,65.50
2019-05-02T02:14:18.375Z,66.00
2019-05-02T02:15:49.018Z,66.20
2019-05-02T02:17:21.273Z,66.20
2019-05-02T02:19:03.999Z,66.20
2019-05-02T02:20:45.124Z,66.50
2019-05-02T02:22:33.926Z,66.70
2019-05-02T02:24:08.877Z,67.10
2019-05-02T02:25:48.608Z,67.00
2019-05-02T02:27:24.603Z,67.10
2019-05-02T02:28:56.228Z,67.20
2019-05-02T02:30:28.334Z,66.50
2019-05-02T02:32:00.450Z,67.10
2019-05-02T02:33:32.726Z,66.70
2019-05-02T02:35:09.909Z,66.80
2019-05-02T02:36:39.759Z,66.70
2019-05-02T02:38:12.051Z,66.60
2019-05-02T02:39:48.400Z,66.80
2019-05-02T02:41:18.317Z,66.90
2019-05-02T02:42:50.726Z,66.20
2019-05-02T02:44:39.947Z,65.90
2019-05-02T02:46:19.775Z,66.70
2019-05-02T02:47:52.957Z,66.90
2019-05-02T02:49:25.952Z,67.40
2019-05-02T02:50:58.189Z,68.10
2019-05-02T02:52:30.285Z,67.60
2019-05-02T02:54:03.870Z,67.70
2019-05-02T02:55:36.670Z,68.00
2019-05-02T02:57:20.591Z,68.00
2019-05-02T02:58:47.888Z,68.70
2019-05-02T03:00:17.390Z,67.90
2019-05-02T03:01:49.648Z,68.40
2019-05-02T03:03:28.020Z,69.20
2019-05-02T03:04:55.894Z,69.10
2019-05-02T03:06:28.146Z,69.20
2019-05-02T03:08:05.505Z,69.80
2019-05-02T03:09:34.476Z,69.60
2019-05-02T03:11:06.954Z,70.00
2019-05-02T03:13:04.740Z,69.90
2019-05-02T03:14:47.187Z,69.80
2019-05-02T03:16:18.425Z,69.90
2019-05-02T03:17:50.540Z,70.00
2019-05-02T03:19:23.296Z,70.40
2019-05-02T03:20:55.570Z,70.10
2019-05-02T03:22:27.677Z,70.20
2019-05-02T03:24:03.205Z,69.50
2019-05-02T03:25:49.717Z,70.40
2019-05-02T03:27:08.027Z,70.30
2019-05-02T03:28:40.286Z,69.30
2019-05-02T03:30:29.270Z,70.30
2019-05-02T03:31:46.543Z,70.30
2019-05-02T03:33:18.958Z,71.00
2019-05-02T03:34:53.644Z,70.90
2019-05-02T03:36:30.072Z,71.00
2019-05-02T03:38:00.308Z,71.20
2019-05-02T03:39:32.564Z,71.30
2019-05-02T03:41:04.663Z,70.60
2019-05-02T03:42:44.809Z,71.60
2019-05-02T03:44:24.617Z,71.50
2019-05-02T03:45:46.307Z,71.40
2019-05-02T03:47:18.539Z,71.80
2019-05-02T03:48:50.819Z,71.80
2019-05-02T03:50:31.393Z,71.80
2019-05-02T03:52:03.095Z,72.60
2019-05-02T03:53:32.106Z,71.80
2019-05-02T03:55:04.191Z,71.90
2019-05-02T03:56:36.256Z,72.20
2019-05-02T03:58:14.041Z,72.50
2019-05-02T03:59:42.513Z,71.50
2019-05-02T04:01:14.679Z,71.90
2019-05-02T04:02:58.902Z,71.80
2019-05-02T04:04:22.761Z,72.00
2019-05-02T04:05:55.125Z,71.70
2019-05-02T04:07:27.553Z,71.80
2019-05-02T04:09:01.885Z,71.90
2019-05-02T04:11:11.699Z,71.50
2019-05-02T04:12:44.266Z,71.80
2019-05-02T04:14:36.608Z,71.90
2019-05-02T04:15:50.493Z,72.40
2019-05-02T04:17:28.534Z,72.80
2019-05-02T04:18:58.380Z,72.50
2019-05-02T04:20:30.778Z,72.60
2019-05-02T04:22:08.679Z,72.80
2019-05-02T04:23:37.755Z,72.90
2019-05-02T04:25:10.096Z,72.80
2019-05-02T04:26:52.626Z,72.80
2019-05-02T04:28:16.597Z,72.70
2019-05-02T04:29:48.756Z,73.20
2019-05-02T04:31:24.687Z,73.20
2019-05-02T04:32:55.833Z,73.50
2019-05-02T04:34:28.379Z,73.20
2019-05-02T04:36:00.620Z,73.50
2019-05-02T04:37:34.491Z,73.90
2019-05-02T04:39:12.708Z,73.50
2019-05-02T04:40:46.362Z,72.40
2019-05-02T04:42:19.693Z,73.30
2019-05-02T04:43:55.910Z,73.50
2019-05-02T04:45:29.706Z,73.40
2019-05-02T04:47:02.772Z,73.90
2019-05-02T04:48:34.809Z,73.20
2019-05-02T04:50:07.626Z,72.30
2019-05-02T04:51:39.797Z,71.50
2019-05-02T04:53:11.988Z,72.60
2019-05-02T04:54:44.102Z,71.90
2019-05-02T04:56:18.521Z,72.10
2019-05-02T04:57:51.070Z,73.10
2019-05-02T04:59:23.562Z,73.60
2019-05-02T05:01:01.066Z,73.80
2019-05-02T05:02:36.720Z,73.70
2019-05-02T05:04:03.984Z,73.60
2019-05-02T05:05:40.005Z,74.00
2019-05-02T05:07:10.408Z,74.50
2019-05-02T05:08:42.692Z,74.50
2019-05-02T05:10:14.816Z,74.50
2019-05-02T05:11:48.182Z,74.60
2019-05-02T05:13:23.279Z,74.40
2019-05-02T05:14:54.623Z,74.70
2019-05-02T05:16:28.620Z,74.20
2019-05-02T05:18:04.566Z,74.10
2019-05-02T05:19:34.860Z,73.90
2019-05-02T05:21:10.255Z,73.10
2019-05-02T05:22:44.148Z,72.70
2019-05-02T05:24:42.308Z,72.10
2019-05-02T05:26:13.602Z,72.00
2019-05-02T05:27:47.844Z,71.50
2019-05-02T05:29:23.233Z,72.00
2019-05-02T05:30:53.910Z,72.00
2019-05-02T05:32:28.054Z,72.20
2019-05-02T05:34:00.068Z,72.60
2019-05-02T05:35:32.221Z,72.20
2019-05-02T05:37:09.400Z,71.30
2019-05-02T05:38:40.624Z,72.20
2019-05-02T05:40:14.627Z,72.50
2019-05-02T05:41:50.862Z,72.00
2019-05-02T05:43:21.049Z,72.90
2019-05-02T05:44:53.344Z,72.90
2019-05-02T05:46:27.758Z,72.80
2019-05-02T05:48:01.085Z,72.60
2019-05-02T05:49:33.629Z,72.90
2019-05-02T05:51:07.282Z,73.10
2019-05-02T05:52:42.437Z,72.60
2019-05-02T05:54:13.834Z,72.50
2019-05-02T05:55:47.329Z,72.90
2019-05-02T05:57:21.208Z,72.60
2019-05-02T05:58:53.517Z,72.60
2019-05-02T06:00:27.654Z,72.30
2019-05-02T06:02:00.091Z,72.40
2019-05-02T06:03:34.052Z,72.50
2019-05-02T06:05:07.904Z,72.70
2019-05-02T06:06:40.232Z,71.80
2019-05-02T06:08:13.839Z,72.90
2019-05-02T06:09:47.855Z,71.90
2019-05-02T06:11:21.847Z,72.00
2019-05-02T06:12:54.153Z,72.50
2019-05-02T06:14:26.523Z,72.40
2019-05-02T06:16:02.620Z,72.10
2019-05-02T06:17:32.869Z,72.80
2019-05-02T06:19:05.160Z,71.70
2019-05-02T06:20:37.275Z,71.10
2019-05-02T06:22:09.443Z,71.80
2019-05-02T06:23:41.723Z,72.00
2019-05-02T06:25:16.013Z,71.90
2019-05-02T06:26:49.978Z,72.10
2019-05-02T06:28:22.290Z,71.50
2019-05-02T06:29:56.078Z,70.50
2019-05-02T06:31:29.079Z,70.50
2019-05-02T06:33:01.275Z,70.40
2019-05-02T06:34:33.543Z,70.50
2019-05-02T06:36:05.647Z,70.20
2019-05-02T06:37:40.587Z,69.80
2019-05-02T06:39:12.239Z,69.80
2019-05-02T06:40:46.482Z,69.70
2019-05-02T06:42:18.525Z,69.40
2019-05-02T06:43:50.786Z,69.20
2019-05-02T06:45:23.141Z,68.70
2019-05-02T06:46:59.188Z,69.00
2019-05-02T06:48:30.504Z,69.10
2019-05-02T06:50:03.262Z,68.70
2019-05-02T06:51:35.476Z,69.00
2019-05-02T06:53:09.539Z,68.80
2019-05-02T06:54:41.782Z,68.20
2019-05-02T06:56:14.114Z,68.40
2019-05-02T06:57:46.398Z,68.00
2019-05-02T06:59:20.261Z,67.50
2019-05-02T07:00:57.999Z,67.30
2019-05-02T07:02:28.223Z,67.30
2019-05-02T07:04:04.125Z,67.50
2019-05-02T07:05:35.764Z,67.70
2019-05-02T07:07:08.027Z,67.00
2019-05-02T07:08:40.383Z,67.10
2019-05-02T07:10:12.959Z,66.20
2019-05-02T07:11:56.624Z,65.40
2019-05-02T07:13:19.468Z,64.40
2019-05-02T07:14:56.089Z,62.90
2019-05-02T07:16:45.337Z,61.50
2019-05-02T07:18:18.043Z,60.20
2019-05-02T07:19:53.166Z,59.20
2019-05-02T07:21:25.280Z,58.50
2019-05-02T07:22:57.407Z,57.80
2019-05-02T07:24:30.739Z,57.10
2019-05-02T07:26:03.528Z,56.30
2019-05-02T07:27:35.816Z,56.30
2019-05-02T07:29:07.939Z,56.60
2019-05-02T07:30:40.255Z,56.70
2019-05-02T07:32:12.518Z,57.10
2019-05-02T07:33:44.740Z,57.30
2019-05-02T07:35:19.374Z,57.10
2019-05-02T07:36:51.028Z,56.80
2019-05-02T07:38:25.770Z,56.20
2019-05-02T07:39:57.140Z,56.20
2019-05-02T07:41:30.280Z,55.80
2019-05-02T07:43:02.604Z,55.10
2019-05-02T07:44:34.975Z,54.80
2019-05-02T07:46:07.207Z,54.90
2019-05-02T07:47:40.341Z,54.30
2019-05-02T07:49:13.496Z,53.10
2019-05-02T07:50:46.556Z,52.50
2019-05-02T07:52:19.948Z,52.20
2019-05-02T07:53:55.171Z,51.80
2019-05-02T07:55:26.156Z,51.40
2019-05-02T07:56:58.269Z,51.00
2019-05-02T07:58:30.361Z,50.70
2019-05-02T08:00:03.061Z,50.10
2019-05-02T08:01:35.302Z,49.80
2019-05-02T08:03:07.608Z,50.00
2019-05-02T08:04:43.547Z,49.40
2019-05-02T08:06:14.016Z,49.60
2019-05-02T08:07:46.160Z,49.00
2019-05-02T08:09:18.404Z,49.20
2019-05-02T08:10:53.373Z,49.40
2019-05-02T08:12:24.728Z,48.60
2019-05-02T08:14:00.315Z,48.70
2019-05-02T08:15:31.305Z,47.60
2019-05-02T08:17:05.676Z,49.10
2019-05-02T08:18:37.821Z,49.10
2019-05-02T08:20:13.750Z,48.50
2019-05-02T08:21:44.234Z,48.60
2019-05-02T08:23:20.437Z,49.10
2019-05-02T08:24:50.602Z,49.00
2019-05-02T08:26:23.515Z,48.40
2019-05-02T08:28:16.040Z,48.00
2019-05-02T08:29:48.698Z,48.00
2019-05-02T08:31:21.005Z,48.10
2019-05-02T08:32:53.378Z,48.20
2019-05-02T08:34:30.014Z,48.00
2019-05-02T08:36:02.272Z,47.20
2019-05-02T08:37:35.412Z,48.20
2019-05-02T08:39:08.598Z,48.00
2019-05-02T08:40:42.323Z,48.00
2019-05-02T08:42:15.070Z,48.50
2019-05-02T08:43:47.243Z,48.50
2019-05-02T08:45:19.472Z,48.20
2019-05-02T08:46:53.259Z,47.50
2019-05-02T08:48:25.663Z,47.70
2019-05-02T08:49:57.978Z,47.90
2019-05-02T08:51:30.104Z,47.80
2019-05-02T08:53:02.167Z,47.60
2019-05-02T08:54:34.298Z,47.80
2019-05-02T08:56:06.548Z,47.90
2019-05-02T08:57:38.726Z,47.30
2019-05-02T08:59:11.004Z,47.00
2019-05-02T09:00:43.618Z,47.00
2019-05-02T09:02:15.870Z,47.40
2019-05-02T09:03:55.474Z,47.00
2019-05-02T09:05:22.292Z,47.10
2019-05-02T09:06:58.636Z,47.00
2019-05-02T09:08:28.424Z,46.60
2019-05-02T09:10:05.926Z,46.40
2019-05-02T09:11:34.937Z,47.10
2019-05-02T09:13:07.040Z,46.60
2019-05-02T09:14:39.242Z,46.40
2019-05-02T09:16:12.092Z,47.30
2019-05-02T09:17:51.745Z,47.30
2019-05-02T09:19:21.190Z,47.10
2019-05-02T09:20:56.510Z,47.00
2019-05-02T09:22:26.863Z,46.70
2019-05-02T09:23:59.044Z,46.30
2019-05-02T09:25:32.434Z,46.80
2019-05-02T09:27:04.805Z,46.10
2019-05-02T09:28:36.894Z,46.50
2019-05-02T09:30:12.073Z,46.80
2019-05-02T09:31:46.044Z,46.30
2019-05-02T09:33:18.301Z,46.30
2019-05-02T09:34:51.827Z,47.00
2019-05-02T09:36:24.365Z,46.90
2019-05-02T09:37:56.468Z,45.70
2019-05-02T09:39:32.708Z,46.10
2019-05-02T09:41:15.351Z,45.90
2019-05-02T09:42:36.999Z,46.90
2019-05-02T09:44:14.552Z,46.70
2019-05-02T09:45:43.943Z,46.80
2019-05-02T09:47:27.413Z,46.20
2019-05-02T09:49:02.837Z,46.40
2019-05-02T09:50:34.364Z,46.50
2019-05-02T09:52:05.753Z,46.60
2019-05-02T09:53:37.970Z,46.60
2019-05-02T09:55:12.214Z,45.60
2019-05-02T09:56:44.579Z,46.10
2019-05-02T09:58:21.272Z,45.80
2019-05-02T09:59:54.757Z,45.70
2019-05-02T10:01:37.910Z,44.80
2019-05-02T10:03:12.053Z,45.60
2019-05-02T10:04:44.483Z,45.10
2019-05-02T10:06:18.290Z,45.30
2019-05-02T10:07:52.444Z,45.90
2019-05-02T10:09:27.179Z,46.10
2019-05-02T10:10:59.092Z,45.60
2019-05-02T10:12:32.118Z,46.30
2019-05-02T10:14:04.807Z,45.40
2019-05-02T10:15:37.052Z,45.50
2019-05-02T10:17:09.420Z,45.70
2019-05-02T10:18:43.073Z,46.00
2019-05-02T10:20:15.937Z,45.80
2019-05-02T10:21:52.447Z,45.50
2019-05-02T10:23:23.437Z,45.80
2019-05-02T10:24:55.917Z,45.90
2019-05-02T10:26:28.096Z,45.90
2019-05-02T10:28:02.120Z,46.30
2019-05-02T10:29:34.594Z,46.30
2019-05-02T10:31:06.826Z,45.60
2019-05-02T10:32:39.047Z,45.40
2019-05-02T10:34:16.293Z,45.50
2019-05-02T10:35:47.075Z,44.90
2019-05-02T10:37:19.171Z,45.00
2019-05-02T10:38:54.786Z,45.00
2019-05-02T10:40:25.619Z,45.30
2019-05-02T10:41:57.767Z,45.50
2019-05-02T10:43:30.074Z,45.10
2019-05-02T10:45:02.851Z,45.00
2019-05-02T10:46:53.465Z,44.80
2019-05-02T10:48:28.462Z,45.50
2019-05-02T10:50:05.108Z,43.70
2019-05-02T10:51:41.930Z,44.00
2019-05-02T10:53:15.729Z,44.70
2019-05-02T10:54:45.651Z,44.70
2019-05-02T10:56:17.850Z,45.00
2019-05-02T10:57:49.914Z,43.70
2019-05-02T10:59:22.184Z,44.70
2019-05-02T11:00:54.548Z,43.10
2019-05-02T11:02:55.240Z,44.20
2019-05-02T11:04:29.370Z,44.80
2019-05-02T11:06:05.427Z,44.70
2019-05-02T11:07:35.977Z,45.10
2019-05-02T11:09:11.893Z,44.40
2019-05-02T11:10:44.607Z,44.00
2019-05-02T11:12:25.845Z,43.60
2019-05-02T11:14:22.518Z,43.40
2019-05-02T11:16:23.276Z,43.70
2019-05-02T11:17:55.447Z,43.70
2019-05-02T11:19:42.010Z,44.10
2019-05-02T11:21:14.253Z,43.80
2019-05-02T11:22:46.313Z,43.40
2019-05-02T11:24:18.458Z,42.80
2019-05-02T11:25:52.504Z,42.90
2019-05-02T11:27:24.570Z,42.90
2019-05-02T11:28:56.635Z,42.50
2019-05-02T11:30:28.885Z,42.30
2019-05-02T11:32:02.770Z,42.30
2019-05-02T11:33:35.197Z,42.50
2019-05-02T11:35:07.459Z,41.80
2019-05-02T11:36:41.507Z,42.00
2019-05-02T11:38:35.034Z,42.60
2019-05-02T11:39:52.906Z,42.40
2019-05-02T11:41:22.415Z,42.40
2019-05-02T11:42:57.177Z,42.40
2019-05-02T11:44:29.134Z,42.00
2019-05-02T11:46:06.952Z,41.80
2019-05-02T11:47:35.258Z,41.80
2019-05-02T11:49:07.336Z,42.00
2019-05-02T11:50:39.486Z,41.40
2019-05-02T11:52:11.899Z,39.70
2019-05-02T11:53:44.244Z,40.60
2019-05-02T11:55:19.122Z,40.00
2019-05-02T11:56:51.306Z,40.20
2019-05-02T11:58:24.519Z,40.30
2019-05-02T11:59:59.345Z,41.40
2019-05-02T12:01:37.032Z,41.90
2019-05-02T12:03:22.755Z,41.90
2019-05-02T12:04:55.649Z,41.40
2019-05-02T12:06:27.833Z,41.20
2019-05-02T12:08:07.305Z,41.10
2019-05-02T12:09:34.168Z,42.40
2019-05-02T12:11:08.423Z,41.30
2019-05-02T12:12:40.549Z,41.30
2019-05-02T12:14:12.822Z,41.30
2019-05-02T12:15:45.053Z,41.30
2019-05-02T12:17:17.280Z,40.70
2019-05-02T12:18:49.463Z,41.80
2019-05-02T12:20:22.797Z,41.40
2019-05-02T12:21:55.639Z,42.10
2019-05-02T12:23:27.840Z,41.60
2019-05-02T12:25:00.072Z,41.80
2019-05-02T12:26:32.538Z,41.30
2019-05-02T12:28:05.506Z,41.40
2019-05-02T12:29:37.604Z,41.30
2019-05-02T12:31:24.666Z,42.00
2019-05-02T12:32:56.936Z,42.70
2019-05-02T12:34:29.083Z,42.50
2019-05-02T12:36:02.617Z,42.10
2019-05-02T12:37:34.923Z,41.90
2019-05-02T12:39:07.662Z,42.70
2019-05-02T12:40:42.031Z,42.40
2019-05-02T12:42:14.169Z,42.10
2019-05-02T12:43:46.594Z,43.20
2019-05-02T12:45:18.914Z,42.00
2019-05-02T12:46:51.817Z,42.90
2019-05-02T12:48:24.108Z,42.90
2019-05-02T12:49:56.183Z,42.50
2019-05-02T12:51:28.433Z,43.20
2019-05-02T12:53:02.798Z,43.50
2019-05-02T12:54:34.584Z,43.20
2019-05-02T12:56:06.808Z,43.20
2019-05-02T12:57:39.112Z,42.60
2019-05-02T12:59:11.953Z,43.00
2019-05-02T13:00:44.296Z,43.40
2019-05-02T13:02:27.712Z,43.20
2019-05-02T13:04:08.460Z,42.70
2019-05-02T13:05:42.482Z,42.60
2019-05-02T13:07:14.609Z,43.00
2019-05-02T13:08:49.240Z,42.70
2019-05-02T13:10:33.387Z,42.50
2019-05-02T13:12:13.289Z,42.50
2019-05-02T13:13:45.877Z,42.40
2019-05-02T13:15:18.102Z,42.50
2019-05-02T13:16:53.425Z,42.60
2019-05-02T13:18:27.252Z,42.20
2019-05-02T13:20:01.500Z,41.90
2019-05-02T13:21:41.877Z,42.00
2019-05-02T13:23:43.986Z,41.60
2019-05-02T13:25:18.824Z,42.50
2019-05-02T13:26:52.011Z,41.70
2019-05-02T13:28:25.762Z,41.80
2019-05-02T13:29:58.379Z,41.60
2019-05-02T13:31:36.679Z,41.80
2019-05-02T13:33:12.269Z,41.50
2019-05-02T13:34:54.157Z,41.20
2019-05-02T13:36:49.376Z,41.30
2019-05-02T13:38:22.363Z,40.50
2019-05-02T13:40:03.588Z,39.20
2019-05-02T13:41:35.662Z,40.60
2019-05-02T13:43:07.932Z,40.90
2019-05-02T13:44:47.536Z,40.30
2019-05-02T13:46:22.205Z,40.50
2019-05-02T13:47:54.679Z,40.60
2019-05-02T13:49:26.836Z,41.30
2019-05-02T13:50:59.169Z,41.00
2019-05-02T13:52:33.203Z,41.10
2019-05-02T13:54:05.716Z,40.60
2019-05-02T13:55:43.416Z,39.90
2019-05-02T13:57:15.532Z,40.70
2019-05-02T13:58:47.661Z,41.00
2019-05-02T14:00:26.943Z,40.30
2019-05-02T14:02:00.338Z,40.50
2019-05-02T14:03:32.617Z,41.10
2019-05-02T14:05:07.376Z,40.70
2019-05-02T14:06:39.432Z,40.00
2019-05-02T14:08:36.882Z,40.30
2019-05-02T14:10:19.730Z,40.00
2019-05-02T14:12:17.292Z,39.60
2019-05-02T14:13:49.563Z,39.30
2019-05-02T14:15:23.988Z,40.50
2019-05-02T14:16:56.083Z,40.20
2019-05-02T14:18:29.477Z,40.30
2019-05-02T14:20:10.397Z,39.10
2019-05-02T14:21:36.339Z,40.00
2019-05-02T14:23:08.548Z,39.40
2019-05-02T14:24:42.175Z,38.90
2019-05-02T14:26:26.930Z,39.60
2019-05-02T14:27:53.740Z,38.80
2019-05-02T14:29:22.962Z,39.70
2019-05-02T14:30:55.220Z,39.80
2019-05-02T14:32:27.351Z,39.50
2019-05-02T14:34:17.465Z,40.10
2019-05-02T14:35:49.756Z,37.50
2019-05-02T14:37:22.711Z,37.90
2019-05-02T14:38:55.139Z,38.10
2019-05-02T14:40:31.918Z,37.20
2019-05-02T14:42:04.347Z,37.40
2019-05-02T14:43:52.614Z,37.90
2019-05-02T14:45:30.721Z,37.80
2019-05-02T14:46:58.290Z,38.20
2019-05-02T14:48:41.092Z,38.10
2019-05-02T14:50:23.165Z,38.10
2019-05-02T14:51:44.063Z,39.00
2019-05-02T14:53:16.802Z,39.40
2019-05-02T14:54:51.888Z,39.40
2019-05-02T14:56:58.908Z,38.80
2019-05-02T14:58:32.473Z,39.50
2019-05-02T15:00:06.105Z,40.10
2019-05-02T15:01:38.200Z,39.90
2019-05-02T15:03:12.811Z,39.80
2019-05-02T15:04:48.813Z,39.60
2019-05-02T15:06:19.242Z,40.20
2019-05-02T15:07:51.893Z,40.40
2019-05-02T15:09:26.767Z,40.20
2019-05-02T15:10:58.319Z,40.40
2019-05-02T15:12:32.434Z,40.50
2019-05-02T15:14:04.699Z,41.10
2019-05-02T15:15:40.904Z,40.60
2019-05-02T15:17:12.078Z,40.50
2019-05-02T15:18:47.517Z,40.40
2019-05-02T15:20:18.562Z,40.80
2019-05-02T15:21:52.519Z,40.60
2019-05-02T15:23:24.886Z,40.40
2019-05-02T15:24:57.181Z,40.50
2019-05-02T15:26:31.392Z,41.10
2019-05-02T15:28:03.451Z,41.40
2019-05-02T15:29:35.716Z,41.40
2019-05-02T15:31:12.384Z,41.40
2019-05-02T15:32:52.089Z,41.30
2019-05-02T15:34:36.969Z,40.20
2019-05-02T15:36:07.652Z,40.40
2019-05-02T15:37:41.650Z,40.70
2019-05-02T15:40:51.373Z,40.40
2019-05-02T15:42:24.625Z,40.90
2019-05-02T15:43:56.481Z,41.20
2019-05-02T15:45:29.084Z,41.40
2019-05-02T15:47:03.467Z,41.60
2019-05-02T15:48:35.392Z,41.80
2019-05-02T15:50:07.485Z,41.50
2019-05-02T15:51:43.725Z,40.90
2019-05-02T15:53:39.157Z,41.50
2019-05-02T15:55:11.621Z,41.10
2019-05-02T15:57:00.331Z,41.30
2019-05-02T15:58:27.956Z,41.40
2019-05-02T16:00:01.635Z,42.40
2019-05-02T16:01:48.828Z,41.10
2019-05-02T16:03:22.841Z,41.30
2019-05-02T16:04:57.025Z,40.60
2019-05-02T16:06:31.569Z,41.20
2019-05-02T16:08:07.258Z,41.10
2019-05-02T16:09:37.891Z,41.40
2019-05-02T16:11:13.757Z,41.30
2019-05-02T16:12:46.176Z,41.80
2019-05-02T16:14:18.338Z,41.40
2019-05-02T16:15:50.455Z,41.20
2019-05-02T16:17:26.584Z,41.30
2019-05-02T16:18:58.665Z,41.40
2019-05-02T16:20:49.378Z,41.40
2019-05-02T16:22:23.868Z,41.00
2019-05-02T16:24:14.873Z,41.40
2019-05-02T16:25:47.292Z,41.70
2019-05-02T16:27:25.857Z,41.70
2019-05-02T16:28:55.569Z,40.80
2019-05-02T16:30:27.888Z,40.70
2019-05-02T16:32:07.917Z,41.10
2019-05-02T16:33:41.711Z,41.20
2019-05-02T16:35:17.222Z,41.40
2019-05-02T16:36:51.854Z,41.60
2019-05-02T16:38:26.776Z,41.10
2019-05-02T16:39:58.260Z,41.20
2019-05-02T16:41:32.563Z,40.60
2019-05-02T16:43:04.983Z,40.80
2019-05-02T16:44:37.232Z,41.20
2019-05-02T16:46:11.867Z,41.20
2019-05-02T16:47:43.695Z,41.10
2019-05-02T16:49:18.665Z,41.20
2019-05-02T16:50:50.162Z,41.20
2019-05-02T16:52:22.436Z,41.40
2019-05-02T16:53:55.999Z,41.70
2019-05-02T16:55:28.946Z,42.30
2019-05-02T16:57:01.761Z,42.80
2019-05-02T16:58:37.943Z,43.20
2019-05-02T17:00:11.236Z,43.50
2019-05-02T17:01:43.050Z,44.20
2019-05-02T17:03:17.455Z,44.40
2019-05-02T17:04:54.269Z,44.70
2019-05-02T17:06:26.074Z,44.80
2019-05-02T17:08:19.919Z,44.80
2019-05-02T17:10:03.353Z,44.90
2019-05-02T17:11:38.399Z,44.80
2019-05-02T17:13:12.500Z,44.90
2019-05-02T17:15:04.148Z,45.00
2019-05-02T17:16:36.398Z,45.20
2019-05-02T17:18:13.430Z,45.00
2019-05-02T17:19:42.681Z,45.00
2019-05-02T17:21:14.900Z,45.20
2019-05-02T17:22:50.212Z,45.50
2019-05-02T17:24:24.606Z,45.30
2019-05-02T17:25:55.141Z,45.30
2019-05-02T17:27:27.432Z,45.10
2019-05-02T17:28:59.586Z,44.80
2019-05-02T17:30:38.685Z,44.80
2019-05-02T17:32:05.968Z,45.00
2019-05-02T17:33:38.247Z,44.90
2019-05-02T17:35:14.019Z,45.50
2019-05-02T17:36:45.863Z,44.70
2019-05-02T17:38:19.085Z,44.70
2019-05-02T17:39:52.505Z,44.70
2019-05-02T17:41:24.805Z,44.80
2019-05-02T17:43:01.685Z,44.80
2019-05-02T17:44:31.160Z,45.00
2019-05-02T17:46:04.584Z,45.30
2019-05-02T17:47:37.692Z,45.20
2019-05-02T17:49:11.804Z,45.40
2019-05-02T17:51:03.860Z,46.10
2019-05-02T17:52:42.718Z,45.60
2019-05-02T17:54:17.464Z,45.60
2019-05-02T17:55:49.324Z,45.70
2019-05-02T17:57:21.597Z,45.80
2019-05-02T17:58:58.149Z,46.10
2019-05-02T18:00:30.085Z,46.10
2019-05-02T18:02:06.635Z,46.20
2019-05-02T18:03:36.641Z,46.20
2019-05-02T18:05:08.895Z,46.30
2019-05-02T18:06:41.777Z,46.40
2019-05-02T18:08:14.892Z,45.90
2019-05-02T18:09:47.307Z,46.50
2019-05-02T18:11:19.405Z,46.70
2019-05-02T18:12:56.736Z,46.60
2019-05-02T18:14:25.910Z,46.80
2019-05-02T18:15:58.277Z,46.70
2019-05-02T18:17:31.785Z,46.80
2019-05-02T18:19:04.218Z,47.00
2019-05-02T18:20:37.121Z,47.00
2019-05-02T18:22:21.053Z,46.80
2019-05-02T18:23:44.621Z,47.00
2019-05-02T18:25:23.611Z,46.90
2019-05-02T18:26:51.704Z,46.70
2019-05-02T18:28:26.405Z,46.60
2019-05-02T18:29:58.300Z,46.40
2019-05-02T18:31:30.550Z,46.40
2019-05-02T18:33:07.081Z,46.50
2019-05-02T18:34:36.884Z,46.60
2019-05-02T18:36:09.178Z,46.60
2019-05-02T18:37:45.088Z,46.50
2019-05-02T18:39:15.289Z,46.40
2019-05-02T18:40:47.609Z,47.00
2019-05-02T18:42:23.808Z,47.00
2019-05-02T18:43:53.868Z,47.00
2019-05-02T18:45:28.583Z,47.00
2019-05-02T18:47:02.296Z,46.80
2019-05-02T18:48:36.539Z,47.10
2019-05-02T18:50:28.480Z,47.20
2019-05-02T18:52:01.800Z,48.30
2019-05-02T18:53:34.183Z,47.70
2019-05-02T18:55:06.540Z,48.00
2019-05-02T18:56:44.264Z,47.70
2019-05-02T18:58:13.022Z,47.10
2019-05-02T18:59:45.423Z,47.80
2019-05-02T19:01:20.756Z,47.70
2019-05-02T19:02:54.588Z,48.30
2019-05-02T19:04:35.272Z,48.80
2019-05-02T19:06:02.248Z,49.60
2019-05-02T19:07:35.887Z,50.20
2019-05-02T19:09:10.279Z,50.50
2019-05-02T19:11:01.278Z,50.90
2019-05-02T19:12:22.510Z,51.00
2019-05-02T19:13:52.715Z,51.50
2019-05-02T19:15:25.011Z,51.30
2019-05-02T19:16:58.131Z,51.90
2019-05-02T19:18:33.129Z,52.20
2019-05-02T19:20:14.548Z,52.30
2019-05-02T19:21:45.527Z,52.20
2019-05-02T19:23:18.050Z,52.70
2019-05-02T19:24:52.264Z,53.00
2019-05-02T19:26:24.348Z,53.20
2019-05-02T19:28:03.163Z,53.30
2019-05-02T19:29:35.419Z,52.90
2019-05-02T19:31:07.670Z,53.30
2019-05-02T19:32:41.610Z,53.30
2019-05-02T19:34:16.694Z,53.70
2019-05-02T19:35:50.001Z,54.00
2019-05-02T19:37:22.223Z,54.00
2019-05-02T19:38:57.448Z,54.00
2019-05-02T19:40:28.627Z,54.10
2019-05-02T19:42:01.769Z,54.90
2019-05-02T19:43:34.973Z,54.40
2019-05-02T19:45:11.781Z,54.60
2019-05-02T19:46:42.179Z,54.40
2019-05-02T19:48:14.685Z,54.90
2019-05-02T19:49:52.422Z,55.10
2019-05-02T19:51:23.963Z,55.10
2019-05-02T19:53:02.143Z,55.10
2019-05-02T19:54:33.912Z,55.10
2019-05-02T19:56:06.673Z,56.20
2019-05-02T19:57:38.819Z,56.00
2019-05-02T19:59:12.008Z,55.50
2019-05-02T20:00:46.282Z,55.50
2019-05-02T20:02:18.664Z,55.60
2019-05-02T20:03:52.063Z,55.60
2019-05-02T20:05:25.742Z,55.40
2019-05-02T20:06:58.141Z,56.00
2019-05-02T20:08:32.372Z,56.30
2019-05-02T20:10:04.890Z,56.50
2019-05-02T20:11:37.007Z,56.90
2019-05-02T20:13:09.237Z,57.00
2019-05-02T20:14:43.694Z,56.90
2019-05-02T20:16:36.712Z,57.30
2019-05-02T20:18:08.168Z,57.10